sensor_id;sensor_type;location;lat;lon;timestamp;P1;durP1;ratioP1;P2;durP2;ratioP2
18176;SDS011;9213;50.858;3.964;2023-02-18T00:01:08;14.37;;;9.47;;
18176;SDS011;9213;50.858;3.964;2023-02-18T00:03:35;13.03;;;9.47;;
18176;SDS011;9213;50.858;3.964;2023-02-18T00:06:09;17.33;;;10.47;;
18176;SDS011;9213;50.858;3.964;2023-02-18T00:08:38;18.37;;;10.33;;
18176;SDS011;9213;50.858;3.964;2023-02-18T00:11:05;15.00;;;9.73;;
18176;SDS011;9213;50.858;3.964;2023-02-18T00:13:33;13.43;;;9.07;;
18176;SDS011;9213;50.858;3.964;2023-02-18T00:16:00;14.40;;;9.23;;
18176;SDS011;9213;50.858;3.964;2023-02-18T00:18:28;12.67;;;8.87;;
18176;SDS011;9213;50.858;3.964;2023-02-18T00:20:55;12.37;;;8.17;;
18176;SDS011;9213;50.858;3.964;2023-02-18T00:23:22;13.27;;;8.20;;
18176;SDS011;9213;50.858;3.964;2023-02-18T00:25:51;14.10;;;8.17;;
18176;SDS011;9213;50.858;3.964;2023-02-18T00:28:24;11.53;;;7.60;;
18176;SDS011;9213;50.858;3.964;2023-02-18T00:30:51;11.80;;;7.97;;
18176;SDS011;9213;50.858;3.964;2023-02-18T00:33:18;13.60;;;7.90;;
18176;SDS011;9213;50.858;3.964;2023-02-18T00:35:45;10.67;;;7.53;;
18176;SDS011;9213;50.858;3.964;2023-02-18T00:38:12;11.00;;;6.53;;
18176;SDS011;9213;50.858;3.964;2023-02-18T00:40:39;10.47;;;7.10;;
18176;SDS011;9213;50.858;3.964;2023-02-18T00:43:08;9.47;;;6.83;;
18176;SDS011;9213;50.858;3.964;2023-02-18T00:45:35;14.57;;;7.80;;
18176;SDS011;9213;50.858;3.964;2023-02-18T00:48:02;9.67;;;7.30;;
18176;SDS011;9213;50.858;3.964;2023-02-18T00:50:29;13.70;;;7.70;;
18176;SDS011;9213;50.858;3.964;2023-02-18T00:52:56;11.03;;;7.23;;
18176;SDS011;9213;50.858;3.964;2023-02-18T00:55:23;13.27;;;6.90;;
18176;SDS011;9213;50.858;3.964;2023-02-18T00:57:49;13.23;;;7.33;;
18176;SDS011;9213;50.858;3.964;2023-02-18T01:00:18;10.93;;;6.90;;
18176;SDS011;9213;50.858;3.964;2023-02-18T01:02:45;10.87;;;6.90;;
18176;SDS011;9213;50.858;3.964;2023-02-18T01:05:12;9.90;;;6.50;;
18176;SDS011;9213;50.858;3.964;2023-02-18T01:07:39;12.70;;;6.83;;
18176;SDS011;9213;50.858;3.964;2023-02-18T01:10:06;7.13;;;5.93;;
18176;SDS011;9213;50.858;3.964;2023-02-18T01:12:33;7.77;;;6.07;;
18176;SDS011;9213;50.858;3.964;2023-02-18T01:15:00;7.33;;;5.73;;
18176;SDS011;9213;50.858;3.964;2023-02-18T01:17:29;7.03;;;5.57;;
18176;SDS011;9213;50.858;3.964;2023-02-18T01:19:56;7.93;;;5.77;;
18176;SDS011;9213;50.858;3.964;2023-02-18T01:22:23;6.60;;;5.60;;
18176;SDS011;9213;50.858;3.964;2023-02-18T01:24:50;8.50;;;5.00;;
18176;SDS011;9213;50.858;3.964;2023-02-18T01:27:17;5.90;;;4.97;;
18176;SDS011;9213;50.858;3.964;2023-02-18T01:29:44;6.37;;;4.80;;
18176;SDS011;9213;50.858;3.964;2023-02-18T01:32:11;5.00;;;4.30;;
18176;SDS011;9213;50.858;3.964;2023-02-18T01:34:39;4.97;;;4.43;;
18176;SDS011;9213;50.858;3.964;2023-02-18T01:37:06;6.37;;;4.20;;
18176;SDS011;9213;50.858;3.964;2023-02-18T01:39:33;5.37;;;4.30;;
18176;SDS011;9213;50.858;3.964;2023-02-18T01:42:00;5.00;;;4.40;;
18176;SDS011;9213;50.858;3.964;2023-02-18T01:44:27;5.70;;;4.53;;
18176;SDS011;9213;50.858;3.964;2023-02-18T01:46:54;5.73;;;4.50;;
18176;SDS011;9213;50.858;3.964;2023-02-18T01:49:22;6.60;;;5.00;;
18176;SDS011;9213;50.858;3.964;2023-02-18T01:51:53;7.93;;;5.03;;
18176;SDS011;9213;50.858;3.964;2023-02-18T01:54:26;7.53;;;5.23;;
18176;SDS011;9213;50.858;3.964;2023-02-18T01:56:58;7.60;;;5.50;;
18176;SDS011;9213;50.858;3.964;2023-02-18T01:59:28;11.30;;;5.20;;
18176;SDS011;9213;50.858;3.964;2023-02-18T02:01:58;8.10;;;5.00;;
18176;SDS011;9213;50.858;3.964;2023-02-18T02:04:25;6.30;;;5.13;;
18176;SDS011;9213;50.858;3.964;2023-02-18T02:06:53;6.17;;;4.80;;
18176;SDS011;9213;50.858;3.964;2023-02-18T02:09:21;8.00;;;5.20;;
18176;SDS011;9213;50.858;3.964;2023-02-18T02:15:03;4.53;;;4.13;;
18176;SDS011;9213;50.858;3.964;2023-02-18T02:17:40;4.63;;;4.23;;
18176;SDS011;9213;50.858;3.964;2023-02-18T02:20:22;5.80;;;4.30;;
18176;SDS011;9213;50.858;3.964;2023-02-18T02:23:27;4.17;;;3.60;;
18176;SDS011;9213;50.858;3.964;2023-02-18T02:35:05;4.97;;;3.70;;
18176;SDS011;9213;50.858;3.964;2023-02-18T02:37:36;5.17;;;4.10;;
18176;SDS011;9213;50.858;3.964;2023-02-18T02:40:15;4.37;;;3.97;;
18176;SDS011;9213;50.858;3.964;2023-02-18T02:42:52;4.80;;;4.00;;
18176;SDS011;9213;50.858;3.964;2023-02-18T02:45:34;4.30;;;3.80;;
18176;SDS011;9213;50.858;3.964;2023-02-18T02:48:10;5.43;;;3.40;;
18176;SDS011;9213;50.858;3.964;2023-02-18T02:50:49;3.77;;;3.37;;
18176;SDS011;9213;50.858;3.964;2023-02-18T02:53:21;4.10;;;3.07;;
18176;SDS011;9213;50.858;3.964;2023-02-18T02:55:51;3.77;;;2.83;;
18176;SDS011;9213;50.858;3.964;2023-02-18T02:58:19;3.87;;;3.10;;
18176;SDS011;9213;50.858;3.964;2023-02-18T03:00:51;4.30;;;2.90;;
18176;SDS011;9213;50.858;3.964;2023-02-18T03:03:33;3.77;;;2.80;;
18176;SDS011;9213;50.858;3.964;2023-02-18T03:06:31;3.87;;;3.00;;
18176;SDS011;9213;50.858;3.964;2023-02-18T03:09:32;2.50;;;2.30;;
18176;SDS011;9213;50.858;3.964;2023-02-18T03:12:09;3.87;;;2.37;;
18176;SDS011;9213;50.858;3.964;2023-02-18T03:14:43;2.60;;;2.40;;
18176;SDS011;9213;50.858;3.964;2023-02-18T03:17:17;2.60;;;2.30;;
18176;SDS011;9213;50.858;3.964;2023-02-18T03:19:52;3.47;;;2.30;;
18176;SDS011;9213;50.858;3.964;2023-02-18T03:22:24;4.27;;;2.20;;
18176;SDS011;9213;50.858;3.964;2023-02-18T03:24:55;2.60;;;2.40;;
18176;SDS011;9213;50.858;3.964;2023-02-18T03:27:24;3.50;;;2.27;;
18176;SDS011;9213;50.858;3.964;2023-02-18T03:29:55;2.47;;;2.27;;
18176;SDS011;9213;50.858;3.964;2023-02-18T03:32:26;3.07;;;2.77;;
18176;SDS011;9213;50.858;3.964;2023-02-18T03:34:58;3.00;;;2.70;;
18176;SDS011;9213;50.858;3.964;2023-02-18T03:37:31;5.50;;;2.90;;
18176;SDS011;9213;50.858;3.964;2023-02-18T03:40:04;3.93;;;2.70;;
18176;SDS011;9213;50.858;3.964;2023-02-18T03:42:33;3.87;;;2.40;;
18176;SDS011;9213;50.858;3.964;2023-02-18T03:45:00;2.83;;;2.30;;
18176;SDS011;9213;50.858;3.964;2023-02-18T03:47:27;2.17;;;2.00;;
18176;SDS011;9213;50.858;3.964;2023-02-18T03:49:53;2.30;;;2.07;;
18176;SDS011;9213;50.858;3.964;2023-02-18T03:52:20;2.20;;;1.80;;
18176;SDS011;9213;50.858;3.964;2023-02-18T03:54:49;2.57;;;2.13;;
18176;SDS011;9213;50.858;3.964;2023-02-18T03:57:16;1.97;;;1.87;;
18176;SDS011;9213;50.858;3.964;2023-02-18T03:59:43;2.37;;;2.17;;
18176;SDS011;9213;50.858;3.964;2023-02-18T04:02:09;2.33;;;2.13;;
18176;SDS011;9213;50.858;3.964;2023-02-18T04:04:36;2.63;;;2.00;;
18176;SDS011;9213;50.858;3.964;2023-02-18T04:07:03;2.07;;;1.87;;
18176;SDS011;9213;50.858;3.964;2023-02-18T04:09:30;2.00;;;1.90;;
18176;SDS011;9213;50.858;3.964;2023-02-18T04:11:58;2.27;;;2.07;;
18176;SDS011;9213;50.858;3.964;2023-02-18T04:14:25;3.33;;;2.30;;
18176;SDS011;9213;50.858;3.964;2023-02-18T04:16:52;2.27;;;1.90;;
18176;SDS011;9213;50.858;3.964;2023-02-18T04:19:19;2.80;;;2.30;;
18176;SDS011;9213;50.858;3.964;2023-02-18T04:21:46;3.17;;;2.37;;
18176;SDS011;9213;50.858;3.964;2023-02-18T04:24:13;2.80;;;2.30;;
18176;SDS011;9213;50.858;3.964;2023-02-18T04:26:40;4.00;;;2.20;;
18176;SDS011;9213;50.858;3.964;2023-02-18T04:29:08;2.17;;;1.97;;
18176;SDS011;9213;50.858;3.964;2023-02-18T04:31:35;3.80;;;2.17;;
18176;SDS011;9213;50.858;3.964;2023-02-18T04:34:02;2.20;;;1.97;;
18176;SDS011;9213;50.858;3.964;2023-02-18T04:36:29;3.33;;;2.37;;
18176;SDS011;9213;50.858;3.964;2023-02-18T04:38:56;2.50;;;2.17;;
18176;SDS011;9213;50.858;3.964;2023-02-18T04:41:23;2.63;;;2.37;;
18176;SDS011;9213;50.858;3.964;2023-02-18T04:43:50;2.53;;;2.33;;
18176;SDS011;9213;50.858;3.964;2023-02-18T04:46:18;4.27;;;2.33;;
18176;SDS011;9213;50.858;3.964;2023-02-18T04:48:45;2.60;;;2.40;;
18176;SDS011;9213;50.858;3.964;2023-02-18T04:51:12;2.70;;;2.33;;
18176;SDS011;9213;50.858;3.964;2023-02-18T04:53:40;2.60;;;2.40;;
18176;SDS011;9213;50.858;3.964;2023-02-18T04:56:07;3.73;;;2.60;;
18176;SDS011;9213;50.858;3.964;2023-02-18T04:58:34;4.13;;;2.80;;
18176;SDS011;9213;50.858;3.964;2023-02-18T05:01:01;4.03;;;2.50;;
18176;SDS011;9213;50.858;3.964;2023-02-18T05:03:31;4.20;;;2.80;;
18176;SDS011;9213;50.858;3.964;2023-02-18T05:05:58;2.90;;;2.50;;
18176;SDS011;9213;50.858;3.964;2023-02-18T05:08:25;5.53;;;2.70;;
18176;SDS011;9213;50.858;3.964;2023-02-18T05:10:52;4.10;;;2.73;;
18176;SDS011;9213;50.858;3.964;2023-02-18T05:13:19;5.33;;;2.53;;
18176;SDS011;9213;50.858;3.964;2023-02-18T05:15:46;3.43;;;2.60;;
18176;SDS011;9213;50.858;3.964;2023-02-18T05:18:13;6.77;;;2.80;;
18176;SDS011;9213;50.858;3.964;2023-02-18T05:20:42;5.70;;;2.70;;
18176;SDS011;9213;50.858;3.964;2023-02-18T05:23:09;4.57;;;2.27;;
18176;SDS011;9213;50.858;3.964;2023-02-18T05:25:36;4.83;;;2.20;;
18176;SDS011;9213;50.858;3.964;2023-02-18T05:28:03;5.53;;;2.23;;
18176;SDS011;9213;50.858;3.964;2023-02-18T05:30:30;8.80;;;3.33;;
18176;SDS011;9213;50.858;3.964;2023-02-18T05:32:57;8.13;;;2.50;;
18176;SDS011;9213;50.858;3.964;2023-02-18T05:35:24;7.03;;;2.33;;
18176;SDS011;9213;50.858;3.964;2023-02-18T05:37:52;7.70;;;2.20;;
18176;SDS011;9213;50.858;3.964;2023-02-18T05:40:19;10.40;;;2.00;;
18176;SDS011;9213;50.858;3.964;2023-02-18T05:42:46;10.63;;;2.33;;
18176;SDS011;9213;50.858;3.964;2023-02-18T05:45:13;12.23;;;2.53;;
18176;SDS011;9213;50.858;3.964;2023-02-18T05:47:40;11.33;;;2.90;;
18176;SDS011;9213;50.858;3.964;2023-02-18T05:50:07;7.97;;;2.20;;
18176;SDS011;9213;50.858;3.964;2023-02-18T05:52:34;11.43;;;2.43;;
18176;SDS011;9213;50.858;3.964;2023-02-18T05:55:02;8.80;;;2.53;;
18176;SDS011;9213;50.858;3.964;2023-02-18T05:57:30;7.93;;;2.33;;
18176;SDS011;9213;50.858;3.964;2023-02-18T05:59:57;7.47;;;2.40;;
18176;SDS011;9213;50.858;3.964;2023-02-18T06:02:24;14.17;;;3.20;;
18176;SDS011;9213;50.858;3.964;2023-02-18T06:04:50;16.33;;;2.80;;
18176;SDS011;9213;50.858;3.964;2023-02-18T06:07:17;15.23;;;3.13;;
18176;SDS011;9213;50.858;3.964;2023-02-18T06:09:44;12.83;;;2.87;;
18176;SDS011;9213;50.858;3.964;2023-02-18T06:12:13;14.17;;;2.73;;
18176;SDS011;9213;50.858;3.964;2023-02-18T06:14:40;10.93;;;3.37;;
18176;SDS011;9213;50.858;3.964;2023-02-18T06:17:07;11.70;;;2.87;;
18176;SDS011;9213;50.858;3.964;2023-02-18T06:19:34;14.27;;;2.93;;
18176;SDS011;9213;50.858;3.964;2023-02-18T06:22:01;8.80;;;3.57;;
18176;SDS011;9213;50.858;3.964;2023-02-18T06:24:28;10.57;;;2.50;;
18176;SDS011;9213;50.858;3.964;2023-02-18T06:26:55;11.87;;;3.17;;
18176;SDS011;9213;50.858;3.964;2023-02-18T06:29:23;10.70;;;2.83;;
18176;SDS011;9213;50.858;3.964;2023-02-18T06:31:50;13.37;;;2.73;;
18176;SDS011;9213;50.858;3.964;2023-02-18T06:34:17;14.50;;;2.63;;
18176;SDS011;9213;50.858;3.964;2023-02-18T06:36:44;13.00;;;2.70;;
18176;SDS011;9213;50.858;3.964;2023-02-18T06:39:11;16.67;;;2.70;;
18176;SDS011;9213;50.858;3.964;2023-02-18T06:41:38;13.57;;;2.60;;
18176;SDS011;9213;50.858;3.964;2023-02-18T06:44:05;11.43;;;2.77;;
18176;SDS011;9213;50.858;3.964;2023-02-18T06:46:34;27.50;;;3.47;;
18176;SDS011;9213;50.858;3.964;2023-02-18T06:49:01;12.67;;;2.73;;
18176;SDS011;9213;50.858;3.964;2023-02-18T06:51:28;10.87;;;2.40;;
18176;SDS011;9213;50.858;3.964;2023-02-18T06:53:55;10.13;;;2.50;;
18176;SDS011;9213;50.858;3.964;2023-02-18T06:56:22;14.80;;;2.90;;
18176;SDS011;9213;50.858;3.964;2023-02-18T06:58:49;15.03;;;2.80;;
18176;SDS011;9213;50.858;3.964;2023-02-18T07:01:15;9.40;;;2.57;;
18176;SDS011;9213;50.858;3.964;2023-02-18T07:03:44;11.80;;;2.40;;
18176;SDS011;9213;50.858;3.964;2023-02-18T07:06:11;15.33;;;3.00;;
18176;SDS011;9213;50.858;3.964;2023-02-18T07:08:38;12.97;;;2.73;;
18176;SDS011;9213;50.858;3.964;2023-02-18T07:11:05;14.17;;;2.50;;
18176;SDS011;9213;50.858;3.964;2023-02-18T07:13:32;8.37;;;2.57;;
18176;SDS011;9213;50.858;3.964;2023-02-18T07:15:59;7.87;;;2.93;;
18176;SDS011;9213;50.858;3.964;2023-02-18T07:18:26;16.27;;;3.00;;
18176;SDS011;9213;50.858;3.964;2023-02-18T07:20:54;10.57;;;2.43;;
18176;SDS011;9213;50.858;3.964;2023-02-18T07:23:21;14.60;;;3.00;;
18176;SDS011;9213;50.858;3.964;2023-02-18T07:25:48;11.00;;;2.77;;
18176;SDS011;9213;50.858;3.964;2023-02-18T07:28:15;9.90;;;2.80;;
18176;SDS011;9213;50.858;3.964;2023-02-18T07:30:42;12.83;;;2.70;;
18176;SDS011;9213;50.858;3.964;2023-02-18T07:33:08;10.87;;;2.63;;
18176;SDS011;9213;50.858;3.964;2023-02-18T07:35:35;11.73;;;2.73;;
18176;SDS011;9213;50.858;3.964;2023-02-18T07:38:04;13.17;;;3.10;;
18176;SDS011;9213;50.858;3.964;2023-02-18T07:40:31;9.90;;;2.13;;
18176;SDS011;9213;50.858;3.964;2023-02-18T07:42:57;14.77;;;2.90;;
18176;SDS011;9213;50.858;3.964;2023-02-18T07:45:24;13.73;;;2.50;;
18176;SDS011;9213;50.858;3.964;2023-02-18T07:47:51;14.03;;;3.00;;
18176;SDS011;9213;50.858;3.964;2023-02-18T07:50:18;8.67;;;2.60;;
18176;SDS011;9213;50.858;3.964;2023-02-18T07:52:45;12.33;;;3.00;;
18176;SDS011;9213;50.858;3.964;2023-02-18T07:55:13;10.63;;;2.30;;
18176;SDS011;9213;50.858;3.964;2023-02-18T07:57:40;15.40;;;2.30;;
18176;SDS011;9213;50.858;3.964;2023-02-18T08:00:38;12.50;;;2.83;;
18176;SDS011;9213;50.858;3.964;2023-02-18T08:03:05;12.87;;;2.67;;
18176;SDS011;9213;50.858;3.964;2023-02-18T08:05:32;13.43;;;3.20;;
18176;SDS011;9213;50.858;3.964;2023-02-18T08:07:59;14.57;;;4.43;;
18176;SDS011;9213;50.858;3.964;2023-02-18T08:10:26;13.47;;;3.00;;
18176;SDS011;9213;50.858;3.964;2023-02-18T08:12:53;15.73;;;3.00;;
18176;SDS011;9213;50.858;3.964;2023-02-18T08:15:19;9.00;;;2.30;;
18176;SDS011;9213;50.858;3.964;2023-02-18T08:17:48;13.33;;;2.27;;
18176;SDS011;9213;50.858;3.964;2023-02-18T08:20:15;16.53;;;3.40;;
18176;SDS011;9213;50.858;3.964;2023-02-18T08:22:42;7.23;;;2.20;;
18176;SDS011;9213;50.858;3.964;2023-02-18T08:25:09;13.30;;;2.90;;
18176;SDS011;9213;50.858;3.964;2023-02-18T08:27:36;12.17;;;2.47;;
18176;SDS011;9213;50.858;3.964;2023-02-18T08:30:03;8.53;;;2.10;;
18176;SDS011;9213;50.858;3.964;2023-02-18T08:32:30;5.40;;;2.00;;
18176;SDS011;9213;50.858;3.964;2023-02-18T08:34:59;10.47;;;2.60;;
18176;SDS011;9213;50.858;3.964;2023-02-18T08:37:26;7.37;;;2.20;;
18176;SDS011;9213;50.858;3.964;2023-02-18T08:39:52;8.33;;;2.83;;
18176;SDS011;9213;50.858;3.964;2023-02-18T08:42:19;6.17;;;2.17;;
18176;SDS011;9213;50.858;3.964;2023-02-18T08:44:46;6.83;;;2.23;;
18176;SDS011;9213;50.858;3.964;2023-02-18T08:47:13;6.93;;;1.70;;
18176;SDS011;9213;50.858;3.964;2023-02-18T08:49:40;6.87;;;2.00;;
18176;SDS011;9213;50.858;3.964;2023-02-18T08:52:08;6.23;;;1.70;;
18176;SDS011;9213;50.858;3.964;2023-02-18T08:54:35;7.60;;;1.90;;
18176;SDS011;9213;50.858;3.964;2023-02-18T08:57:02;7.83;;;2.10;;
18176;SDS011;9213;50.858;3.964;2023-02-18T08:59:29;5.63;;;2.03;;
18176;SDS011;9213;50.858;3.964;2023-02-18T09:01:56;9.90;;;2.37;;
18176;SDS011;9213;50.858;3.964;2023-02-18T09:04:23;8.10;;;2.07;;
18176;SDS011;9213;50.858;3.964;2023-02-18T09:06:50;8.47;;;1.93;;
18176;SDS011;9213;50.858;3.964;2023-02-18T09:09:18;7.23;;;1.67;;
18176;SDS011;9213;50.858;3.964;2023-02-18T09:11:45;7.53;;;1.60;;
18176;SDS011;9213;50.858;3.964;2023-02-18T09:14:13;9.17;;;2.63;;
18176;SDS011;9213;50.858;3.964;2023-02-18T09:16:40;4.57;;;1.80;;
18176;SDS011;9213;50.858;3.964;2023-02-18T09:19:08;6.43;;;1.50;;
18176;SDS011;9213;50.858;3.964;2023-02-18T09:21:35;8.77;;;2.43;;
18176;SDS011;9213;50.858;3.964;2023-02-18T09:24:02;10.43;;;2.10;;
18176;SDS011;9213;50.858;3.964;2023-02-18T09:26:30;7.37;;;1.77;;
18176;SDS011;9213;50.858;3.964;2023-02-18T09:28:57;7.30;;;1.90;;
18176;SDS011;9213;50.858;3.964;2023-02-18T09:31:25;5.87;;;2.20;;
18176;SDS011;9213;50.858;3.964;2023-02-18T09:33:54;8.90;;;2.30;;
18176;SDS011;9213;50.858;3.964;2023-02-18T09:36:22;8.33;;;2.40;;
18176;SDS011;9213;50.858;3.964;2023-02-18T09:38:49;8.90;;;2.50;;
18176;SDS011;9213;50.858;3.964;2023-02-18T09:41:19;10.33;;;2.57;;
18176;SDS011;9213;50.858;3.964;2023-02-18T09:43:54;8.53;;;2.40;;
18176;SDS011;9213;50.858;3.964;2023-02-18T09:46:25;9.30;;;2.40;;
18176;SDS011;9213;50.858;3.964;2023-02-18T09:48:55;5.50;;;1.87;;
18176;SDS011;9213;50.858;3.964;2023-02-18T09:51:23;4.87;;;1.87;;
18176;SDS011;9213;50.858;3.964;2023-02-18T09:53:50;8.83;;;2.30;;
18176;SDS011;9213;50.858;3.964;2023-02-18T09:56:18;12.60;;;2.30;;
18176;SDS011;9213;50.858;3.964;2023-02-18T09:58:48;8.63;;;2.40;;
18176;SDS011;9213;50.858;3.964;2023-02-18T10:01:19;7.20;;;2.20;;
18176;SDS011;9213;50.858;3.964;2023-02-18T10:03:50;4.83;;;2.10;;
18176;SDS011;9213;50.858;3.964;2023-02-18T10:06:19;12.23;;;2.20;;
18176;SDS011;9213;50.858;3.964;2023-02-18T10:08:51;5.67;;;2.17;;
18176;SDS011;9213;50.858;3.964;2023-02-18T10:11:21;10.17;;;2.20;;
18176;SDS011;9213;50.858;3.964;2023-02-18T10:13:53;11.13;;;2.27;;
18176;SDS011;9213;50.858;3.964;2023-02-18T10:16:23;7.23;;;1.70;;
18176;SDS011;9213;50.858;3.964;2023-02-18T10:18:52;12.90;;;2.17;;
18176;SDS011;9213;50.858;3.964;2023-02-18T10:21:23;7.03;;;1.50;;
18176;SDS011;9213;50.858;3.964;2023-02-18T10:23:53;5.57;;;1.90;;
18176;SDS011;9213;50.858;3.964;2023-02-18T10:26:24;4.37;;;1.80;;
18176;SDS011;9213;50.858;3.964;2023-02-18T10:28:52;9.83;;;2.17;;
18176;SDS011;9213;50.858;3.964;2023-02-18T10:31:19;11.97;;;2.53;;
18176;SDS011;9213;50.858;3.964;2023-02-18T10:33:56;6.57;;;1.73;;
18176;SDS011;9213;50.858;3.964;2023-02-18T10:36:30;6.70;;;2.60;;
18176;SDS011;9213;50.858;3.964;2023-02-18T10:39:05;6.07;;;1.77;;
18176;SDS011;9213;50.858;3.964;2023-02-18T10:42:13;8.23;;;2.30;;
18176;SDS011;9213;50.858;3.964;2023-02-18T10:44:51;7.00;;;1.90;;
18176;SDS011;9213;50.858;3.964;2023-02-18T10:47:33;8.97;;;2.00;;
18176;SDS011;9213;50.858;3.964;2023-02-18T10:50:07;5.43;;;1.80;;
18176;SDS011;9213;50.858;3.964;2023-02-18T10:52:37;9.77;;;2.17;;
18176;SDS011;9213;50.858;3.964;2023-02-18T10:55:08;5.97;;;2.07;;
18176;SDS011;9213;50.858;3.964;2023-02-18T10:57:44;5.67;;;1.90;;
18176;SDS011;9213;50.858;3.964;2023-02-18T11:00:16;7.37;;;2.30;;
18176;SDS011;9213;50.858;3.964;2023-02-18T11:03:00;6.57;;;2.03;;
18176;SDS011;9213;50.858;3.964;2023-02-18T11:05:34;7.00;;;1.77;;
18176;SDS011;9213;50.858;3.964;2023-02-18T11:08:01;8.87;;;2.40;;
18176;SDS011;9213;50.858;3.964;2023-02-18T11:10:34;7.83;;;2.40;;
18176;SDS011;9213;50.858;3.964;2023-02-18T11:13:06;10.47;;;2.57;;
18176;SDS011;9213;50.858;3.964;2023-02-18T11:15:34;6.83;;;2.17;;
18176;SDS011;9213;50.858;3.964;2023-02-18T11:18:12;10.23;;;2.10;;
18176;SDS011;9213;50.858;3.964;2023-02-18T11:20:53;6.60;;;1.77;;
18176;SDS011;9213;50.858;3.964;2023-02-18T11:23:22;7.13;;;2.27;;
18176;SDS011;9213;50.858;3.964;2023-02-18T11:25:57;9.13;;;2.70;;
18176;SDS011;9213;50.858;3.964;2023-02-18T11:31:10;8.93;;;2.20;;
18176;SDS011;9213;50.858;3.964;2023-02-18T11:33:48;7.90;;;2.80;;
18176;SDS011;9213;50.858;3.964;2023-02-18T11:36:20;7.50;;;2.30;;
18176;SDS011;9213;50.858;3.964;2023-02-18T11:38:49;10.03;;;2.10;;
18176;SDS011;9213;50.858;3.964;2023-02-18T11:41:19;6.23;;;2.10;;
18176;SDS011;9213;50.858;3.964;2023-02-18T11:43:48;12.87;;;2.57;;
18176;SDS011;9213;50.858;3.964;2023-02-18T11:46:19;9.57;;;2.33;;
18176;SDS011;9213;50.858;3.964;2023-02-18T11:48:49;11.57;;;2.17;;
18176;SDS011;9213;50.858;3.964;2023-02-18T11:51:18;12.47;;;2.30;;
18176;SDS011;9213;50.858;3.964;2023-02-18T11:53:58;7.07;;;2.17;;
18176;SDS011;9213;50.858;3.964;2023-02-18T11:56:27;12.10;;;1.80;;
18176;SDS011;9213;50.858;3.964;2023-02-18T11:58:56;5.83;;;2.17;;
18176;SDS011;9213;50.858;3.964;2023-02-18T12:01:27;9.60;;;3.20;;
18176;SDS011;9213;50.858;3.964;2023-02-18T12:04:04;7.03;;;2.17;;
18176;SDS011;9213;50.858;3.964;2023-02-18T12:06:35;10.57;;;2.37;;
18176;SDS011;9213;50.858;3.964;2023-02-18T12:09:10;6.37;;;1.70;;
18176;SDS011;9213;50.858;3.964;2023-02-18T12:11:47;10.23;;;2.40;;
18176;SDS011;9213;50.858;3.964;2023-02-18T12:14:17;8.37;;;1.83;;
18176;SDS011;9213;50.858;3.964;2023-02-18T12:16:48;7.60;;;2.57;;
18176;SDS011;9213;50.858;3.964;2023-02-18T12:19:39;11.60;;;2.43;;
18176;SDS011;9213;50.858;3.964;2023-02-18T12:22:15;9.67;;;2.20;;
18176;SDS011;9213;50.858;3.964;2023-02-18T12:24:52;8.50;;;2.13;;
18176;SDS011;9213;50.858;3.964;2023-02-18T12:27:30;10.63;;;2.80;;
18176;SDS011;9213;50.858;3.964;2023-02-18T12:30:17;9.17;;;2.37;;
18176;SDS011;9213;50.858;3.964;2023-02-18T12:33:05;9.73;;;2.43;;
18176;SDS011;9213;50.858;3.964;2023-02-18T12:35:48;14.50;;;3.47;;
18176;SDS011;9213;50.858;3.964;2023-02-18T12:38:28;8.57;;;2.70;;
18176;SDS011;9213;50.858;3.964;2023-02-18T12:41:16;8.67;;;2.03;;
18176;SDS011;9213;50.858;3.964;2023-02-18T12:44:03;10.37;;;2.70;;
18176;SDS011;9213;50.858;3.964;2023-02-18T12:46:42;8.47;;;2.17;;
18176;SDS011;9213;50.858;3.964;2023-02-18T12:49:25;9.87;;;2.63;;
18176;SDS011;9213;50.858;3.964;2023-02-18T12:52:20;8.97;;;2.60;;
18176;SDS011;9213;50.858;3.964;2023-02-18T12:54:58;8.07;;;2.63;;
18176;SDS011;9213;50.858;3.964;2023-02-18T12:57:47;7.10;;;2.47;;
18176;SDS011;9213;50.858;3.964;2023-02-18T13:06:29;7.67;;;2.13;;
18176;SDS011;9213;50.858;3.964;2023-02-18T13:09:10;8.27;;;1.90;;
18176;SDS011;9213;50.858;3.964;2023-02-18T13:11:50;7.43;;;2.00;;
18176;SDS011;9213;50.858;3.964;2023-02-18T13:14:22;10.97;;;3.03;;
18176;SDS011;9213;50.858;3.964;2023-02-18T13:16:53;8.70;;;2.40;;
18176;SDS011;9213;50.858;3.964;2023-02-18T13:19:23;9.63;;;2.60;;
18176;SDS011;9213;50.858;3.964;2023-02-18T13:21:53;6.53;;;2.70;;
18176;SDS011;9213;50.858;3.964;2023-02-18T13:24:28;14.00;;;2.70;;
18176;SDS011;9213;50.858;3.964;2023-02-18T13:27:00;9.53;;;2.87;;
18176;SDS011;9213;50.858;3.964;2023-02-18T13:29:34;11.87;;;3.07;;
18176;SDS011;9213;50.858;3.964;2023-02-18T13:32:11;8.53;;;3.07;;
18176;SDS011;9213;50.858;3.964;2023-02-18T13:34:47;11.03;;;3.07;;
18176;SDS011;9213;50.858;3.964;2023-02-18T13:37:20;11.23;;;3.10;;
18176;SDS011;9213;50.858;3.964;2023-02-18T13:39:53;8.63;;;2.90;;
18176;SDS011;9213;50.858;3.964;2023-02-18T13:42:26;13.50;;;3.23;;
18176;SDS011;9213;50.858;3.964;2023-02-18T13:45:01;10.97;;;3.20;;
18176;SDS011;9213;50.858;3.964;2023-02-18T13:47:47;16.47;;;3.90;;
18176;SDS011;9213;50.858;3.964;2023-02-18T13:50:21;11.67;;;3.63;;
18176;SDS011;9213;50.858;3.964;2023-02-18T13:55:54;11.17;;;3.37;;
18176;SDS011;9213;50.858;3.964;2023-02-18T13:58:29;10.47;;;3.50;;
18176;SDS011;9213;50.858;3.964;2023-02-18T14:01:16;13.63;;;3.97;;
18176;SDS011;9213;50.858;3.964;2023-02-18T14:03:52;11.63;;;3.17;;
18176;SDS011;9213;50.858;3.964;2023-02-18T14:06:22;12.67;;;3.43;;
18176;SDS011;9213;50.858;3.964;2023-02-18T14:08:51;13.63;;;3.90;;
18176;SDS011;9213;50.858;3.964;2023-02-18T14:11:34;9.47;;;3.43;;
18176;SDS011;9213;50.858;3.964;2023-02-18T14:20:24;9.60;;;4.60;;
18176;SDS011;9213;50.858;3.964;2023-02-18T14:22:57;9.17;;;3.60;;
18176;SDS011;9213;50.858;3.964;2023-02-18T14:25:31;12.67;;;3.43;;
18176;SDS011;9213;50.858;3.964;2023-02-18T14:28:03;11.37;;;3.93;;
18176;SDS011;9213;50.858;3.964;2023-02-18T14:30:56;6.27;;;3.37;;
18176;SDS011;9213;50.858;3.964;2023-02-18T14:33:26;11.57;;;4.60;;
18176;SDS011;9213;50.858;3.964;2023-02-18T14:35:59;9.17;;;3.57;;
18176;SDS011;9213;50.858;3.964;2023-02-18T14:38:36;14.10;;;3.80;;
18176;SDS011;9213;50.858;3.964;2023-02-18T14:41:18;11.07;;;4.10;;
18176;SDS011;9213;50.858;3.964;2023-02-18T14:43:59;9.37;;;4.00;;
18176;SDS011;9213;50.858;3.964;2023-02-18T14:46:49;8.90;;;3.80;;
18176;SDS011;9213;50.858;3.964;2023-02-18T14:49:31;5.53;;;3.53;;
18176;SDS011;9213;50.858;3.964;2023-02-18T14:52:04;9.77;;;3.57;;
18176;SDS011;9213;50.858;3.964;2023-02-18T14:54:37;11.07;;;3.93;;
18176;SDS011;9213;50.858;3.964;2023-02-18T14:57:07;9.50;;;3.70;;
18176;SDS011;9213;50.858;3.964;2023-02-18T14:59:42;12.07;;;3.87;;
18176;SDS011;9213;50.858;3.964;2023-02-18T15:02:14;11.27;;;3.90;;
18176;SDS011;9213;50.858;3.964;2023-02-18T15:04:45;10.93;;;4.00;;
18176;SDS011;9213;50.858;3.964;2023-02-18T15:07:14;11.60;;;3.77;;
18176;SDS011;9213;50.858;3.964;2023-02-18T15:09:44;16.30;;;3.97;;
18176;SDS011;9213;50.858;3.964;2023-02-18T15:12:13;10.60;;;3.63;;
18176;SDS011;9213;50.858;3.964;2023-02-18T15:14:44;11.07;;;4.00;;
18176;SDS011;9213;50.858;3.964;2023-02-18T15:17:14;11.37;;;3.67;;
18176;SDS011;9213;50.858;3.964;2023-02-18T15:19:43;7.03;;;3.60;;
18176;SDS011;9213;50.858;3.964;2023-02-18T15:22:15;9.17;;;3.07;;
18176;SDS011;9213;50.858;3.964;2023-02-18T15:24:44;13.27;;;5.93;;
18176;SDS011;9213;50.858;3.964;2023-02-18T15:27:13;13.57;;;5.47;;
18176;SDS011;9213;50.858;3.964;2023-02-18T15:29:42;13.10;;;4.90;;
18176;SDS011;9213;50.858;3.964;2023-02-18T15:32:14;5.97;;;2.90;;
18176;SDS011;9213;50.858;3.964;2023-02-18T15:34:43;10.43;;;3.10;;
18176;SDS011;9213;50.858;3.964;2023-02-18T15:37:11;7.13;;;3.17;;
18176;SDS011;9213;50.858;3.964;2023-02-18T15:39:40;8.43;;;3.00;;
18176;SDS011;9213;50.858;3.964;2023-02-18T15:42:09;9.43;;;3.30;;
18176;SDS011;9213;50.858;3.964;2023-02-18T15:44:43;8.70;;;3.23;;
18176;SDS011;9213;50.858;3.964;2023-02-18T15:47:13;10.37;;;3.60;;